sensor_id;sensor_type;location;lat;lon;timestamp;pressure;altitude;pressure_sealevel;temperature;humidity
24962;BME280;12992;50.884;13.668;2024-01-10T00:00:25;98575.59;;;-11.96;94.07
24962;BME280;12992;50.884;13.668;2024-01-10T00:02:51;98576.22;;;-11.91;95.44
24962;BME280;12992;50.884;13.668;2024-01-10T00:05:17;98567.63;;;-11.94;95.60
24962;BME280;12992;50.884;13.668;2024-01-10T00:07:43;98574.34;;;-11.89;95.38
24962;BME280;12992;50.884;13.668;2024-01-10T00:10:08;98576.22;;;-11.91;95.53
24962;BME280;12992;50.884;13.668;2024-01-10T00:12:33;98570.63;;;-12.01;95.77
24962;BME280;12992;50.884;13.668;2024-01-10T00:15:03;98575.69;;;-11.97;95.42
24962;BME280;12992;50.884;13.668;2024-01-10T00:17:29;98573.16;;;-11.99;95.73
24962;BME280;12992;50.884;13.668;2024-01-10T00:19:54;98559.44;;;-12.04;96.45
24962;BME280;12992;50.884;13.668;2024-01-10T00:22:19;98567.31;;;-12.04;95.85
24962;BME280;12992;50.884;13.668;2024-01-10T00:24:45;98562.06;;;-12.04;96.56
24962;BME280;12992;50.884;13.668;2024-01-10T00:27:10;98569.78;;;-12.01;96.29
24962;BME280;12992;50.884;13.668;2024-01-10T00:29:35;98577.38;;;-11.81;97.09
24962;BME280;12992;50.884;13.668;2024-01-10T00:32:01;98574.25;;;-11.87;97.54
24962;BME280;12992;50.884;13.668;2024-01-10T00:34:26;98572.28;;;-11.84;96.87
24962;BME280;12992;50.884;13.668;2024-01-10T00:36:52;98584.66;;;-11.86;97.37
24962;BME280;12992;50.884;13.668;2024-01-10T00:39:17;98581.59;;;-11.78;98.05
24962;BME280;12992;50.884;13.668;2024-01-10T00:41:43;98592.09;;;-11.62;97.53
24962;BME280;12992;50.884;13.668;2024-01-10T00:44:08;98592.00;;;-11.61;98.10
24962;BME280;12992;50.884;13.668;2024-01-10T00:46:33;98581.75;;;-11.65;98.78
24962;BME280;12992;50.884;13.668;2024-01-10T00:48:59;98589.56;;;-11.64;98.94
24962;BME280;12992;50.884;13.668;2024-01-10T00:51:24;98592.28;;;-11.65;98.83
24962;BME280;12992;50.884;13.668;2024-01-10T00:53:49;98581.75;;;-11.65;98.56
24962;BME280;12992;50.884;13.668;2024-01-10T00:56:15;98586.06;;;-11.64;97.97
24962;BME280;12992;50.884;13.668;2024-01-10T00:58:40;98592.09;;;-11.62;98.28
24962;BME280;12992;50.884;13.668;2024-01-10T01:01:06;98590.41;;;-11.63;97.93
24962;BME280;12992;50.884;13.668;2024-01-10T01:03:32;98585.28;;;-11.66;97.87
24962;BME280;12992;50.884;13.668;2024-01-10T01:05:57;98584.28;;;-11.64;98.35
24962;BME280;12992;50.884;13.668;2024-01-10T01:08:22;98575.81;;;-11.69;98.01
24962;BME280;12992;50.884;13.668;2024-01-10T01:10:48;98585.56;;;-11.71;98.07
24962;BME280;12992;50.884;13.668;2024-01-10T01:13:13;98575.72;;;-11.67;98.44
24962;BME280;12992;50.884;13.668;2024-01-10T01:15:38;98584.63;;;-11.54;97.09
24962;BME280;12992;50.884;13.668;2024-01-10T01:18:04;98584.72;;;-11.56;98.29
24962;BME280;12992;50.884;13.668;2024-01-10T01:20:29;98577.25;;;-11.63;97.05
24962;BME280;12992;50.884;13.668;2024-01-10T01:22:55;98581.47;;;-11.61;97.96
24962;BME280;12992;50.884;13.668;2024-01-10T01:25:20;98570.47;;;-11.67;98.16
24962;BME280;12992;50.884;13.668;2024-01-10T01:27:45;98581.56;;;-11.47;97.92
24962;BME280;12992;50.884;13.668;2024-01-10T01:30:11;98586.38;;;-11.39;98.08
24962;BME280;12992;50.884;13.668;2024-01-10T01:32:37;98579.03;;;-11.48;96.62
24962;BME280;12992;50.884;13.668;2024-01-10T01:35:03;98558.03;;;-11.64;96.70
24962;BME280;12992;50.884;13.668;2024-01-10T01:37:28;98565.63;;;-11.59;96.80
24962;BME280;12992;50.884;13.668;2024-01-10T01:39:53;98574.84;;;-11.52;96.89
24962;BME280;12992;50.884;13.668;2024-01-10T01:42:19;98579.94;;;-11.49;97.38
24962;BME280;12992;50.884;13.668;2024-01-10T01:44:44;98561.91;;;-11.71;97.16
24962;BME280;12992;50.884;13.668;2024-01-10T01:47:10;98572.41;;;-11.55;97.83
24962;BME280;12992;50.884;13.668;2024-01-10T01:49:35;98568.00;;;-11.55;97.07
24962;BME280;12992;50.884;13.668;2024-01-10T01:52:01;98552.06;;;-11.67;97.32
24962;BME280;12992;50.884;13.668;2024-01-10T01:57:04;98559.00;;;-11.66;97.57
24962;BME280;12992;50.884;13.668;2024-01-10T01:59:30;98565.38;;;-11.55;98.10
24962;BME280;12992;50.884;13.668;2024-01-10T02:01:55;98574.44;;;-11.60;97.58
24962;BME280;12992;50.884;13.668;2024-01-10T02:04:21;98568.84;;;-11.54;97.90
24962;BME280;12992;50.884;13.668;2024-01-10T02:06:47;98560.75;;;-11.65;98.10
24962;BME280;12992;50.884;13.668;2024-01-10T02:09:12;98569.94;;;-11.58;98.12
24962;BME280;12992;50.884;13.668;2024-01-10T02:11:38;98570.25;;;-11.49;97.59
24962;BME280;12992;50.884;13.668;2024-01-10T02:14:03;98549.28;;;-11.64;97.13
24962;BME280;12992;50.884;13.668;2024-01-10T02:16:30;98550.38;;;-11.68;96.26
24962;BME280;12992;50.884;13.668;2024-01-10T02:18:55;98548.34;;;-11.63;96.42
24962;BME280;12992;50.884;13.668;2024-01-10T02:21:21;98551.72;;;-11.61;97.07
24962;BME280;12992;50.884;13.668;2024-01-10T02:23:47;98543.75;;;-11.60;96.55
24962;BME280;12992;50.884;13.668;2024-01-10T02:26:12;98560.38;;;-11.59;96.36
24962;BME280;12992;50.884;13.668;2024-01-10T02:28:38;98561.63;;;-11.51;96.25
24962;BME280;12992;50.884;13.668;2024-01-10T02:31:03;98568.50;;;-11.48;96.90
24962;BME280;12992;50.884;13.668;2024-01-10T02:33:29;98569.16;;;-11.45;96.80
24962;BME280;12992;50.884;13.668;2024-01-10T02:35:54;98567.16;;;-11.55;97.41
24962;BME280;12992;50.884;13.668;2024-01-10T02:38:19;98553.59;;;-11.63;96.81
24962;BME280;12992;50.884;13.668;2024-01-10T02:40:48;98551.22;;;-11.68;96.87
24962;BME280;12992;50.884;13.668;2024-01-10T02:43:13;98553.50;;;-11.62;96.96
24962;BME280;12992;50.884;13.668;2024-01-10T02:45:39;98557.06;;;-11.63;98.15
24962;BME280;12992;50.884;13.668;2024-01-10T02:48:04;98554.53;;;-11.64;98.04
24962;BME280;12992;50.884;13.668;2024-01-10T02:50:30;98552.25;;;-11.71;97.36
24962;BME280;12992;50.884;13.668;2024-01-10T02:52:55;98553.50;;;-11.62;97.53
24962;BME280;12992;50.884;13.668;2024-01-10T02:55:20;98553.75;;;-11.66;98.25
24962;BME280;12992;50.884;13.668;2024-01-10T02:57:46;98557.66;;;-11.58;98.37
24962;BME280;12992;50.884;13.668;2024-01-10T03:00:11;98551.72;;;-11.61;98.27
24962;BME280;12992;50.884;13.668;2024-01-10T03:02:37;98546.81;;;-11.67;97.99
24962;BME280;12992;50.884;13.668;2024-01-10T03:05:02;98552.38;;;-11.58;97.75
24962;BME280;12992;50.884;13.668;2024-01-10T03:07:28;98560.22;;;-11.56;96.68
24962;BME280;12992;50.884;13.668;2024-01-10T03:09:53;98547.31;;;-11.61;97.96
24962;BME280;12992;50.884;13.668;2024-01-10T03:12:18;98552.38;;;-11.58;97.44
24962;BME280;12992;50.884;13.668;2024-01-10T03:14:44;98535.66;;;-11.71;97.60
24962;BME280;12992;50.884;13.668;2024-01-10T03:17:09;98540.56;;;-11.65;98.28
24962;BME280;12992;50.884;13.668;2024-01-10T03:19:34;98532.50;;;-11.78;97.97
24962;BME280;12992;50.884;13.668;2024-01-10T03:22:02;98522.59;;;-11.73;97.63
24962;BME280;12992;50.884;13.668;2024-01-10T03:24:28;98539.13;;;-11.71;98.00
24962;BME280;12992;50.884;13.668;2024-01-10T03:26:54;98532.59;;;-11.63;97.91
24962;BME280;12992;50.884;13.668;2024-01-10T03:29:19;98535.31;;;-11.65;97.71
24962;BME280;12992;50.884;13.668;2024-01-10T03:31:44;98534.28;;;-11.62;96.77
24962;BME280;12992;50.884;13.668;2024-01-10T03:34:10;98536.47;;;-11.55;97.04
24962;BME280;12992;50.884;13.668;2024-01-10T03:36:35;98520.06;;;-11.74;97.33
24962;BME280;12992;50.884;13.668;2024-01-10T03:39:00;98523.44;;;-11.72;96.31
24962;BME280;12992;50.884;13.668;2024-01-10T03:41:26;98525.31;;;-11.74;97.25
24962;BME280;12992;50.884;13.668;2024-01-10T03:43:51;98516.75;;;-11.78;96.69
24962;BME280;12992;50.884;13.668;2024-01-10T03:46:16;98521.84;;;-11.75;97.89
24962;BME280;12992;50.884;13.668;2024-01-10T03:48:42;98514.34;;;-11.81;97.27
24962;BME280;12992;50.884;13.668;2024-01-10T03:51:15;98516.97;;;-11.81;96.58
24962;BME280;12992;50.884;13.668;2024-01-10T03:53:41;98523.53;;;-11.74;97.85
24962;BME280;12992;50.884;13.668;2024-01-10T03:56:06;98527.84;;;-11.73;97.84
24962;BME280;12992;50.884;13.668;2024-01-10T03:58:32;98518.53;;;-11.78;97.54
24962;BME280;12992;50.884;13.668;2024-01-10T04:00:57;98511.50;;;-11.92;97.08
24962;BME280;12992;50.884;13.668;2024-01-10T04:03:22;98526.53;;;-11.80;97.30
24962;BME280;12992;50.884;13.668;2024-01-10T04:05:48;98519.47;;;-11.79;98.04
24962;BME280;12992;50.884;13.668;2024-01-10T04:08:13;98517.91;;;-11.82;98.28
24962;BME280;12992;50.884;13.668;2024-01-10T04:10:38;98525.38;;;-11.76;97.62
24962;BME280;12992;50.884;13.668;2024-01-10T04:13:04;98519.59;;;-11.81;98.37
24962;BME280;12992;50.884;13.668;2024-01-10T04:15:29;98529.97;;;-11.79;97.71
24962;BME280;12992;50.884;13.668;2024-01-10T04:17:54;98526.63;;;-11.81;97.08
24962;BME280;12992;50.884;13.668;2024-01-10T04:20:20;98535.97;;;-11.61;96.94
24962;BME280;12992;50.884;13.668;2024-01-10T04:22:45;98539.34;;;-11.59;97.92
24962;BME280;12992;50.884;13.668;2024-01-10T04:25:11;98536.91;;;-11.62;97.74
24962;BME280;12992;50.884;13.668;2024-01-10T04:27:36;98524.78;;;-11.65;96.53
24962;BME280;12992;50.884;13.668;2024-01-10T04:30:01;98530.91;;;-11.64;97.85
24962;BME280;12992;50.884;13.668;2024-01-10T04:32:27;98533.16;;;-11.58;97.58
24962;BME280;12992;50.884;13.668;2024-01-10T04:34:52;98530.53;;;-11.58;97.18
24962;BME280;12992;50.884;13.668;2024-01-10T04:37:18;98531.97;;;-11.53;97.18
24962;BME280;12992;50.884;13.668;2024-01-10T04:39:43;98522.06;;;-11.63;97.64
24962;BME280;12992;50.884;13.668;2024-01-10T04:42:10;98531.56;;;-11.61;97.26
24962;BME280;12992;50.884;13.668;2024-01-10T04:44:36;98542.38;;;-11.51;97.78
24962;BME280;12992;50.884;13.668;2024-01-10T04:47:02;98530.72;;;-11.61;97.95
24962;BME280;12992;50.884;13.668;2024-01-10T04:49:27;98541.44;;;-11.50;97.85
24962;BME280;12992;50.884;13.668;2024-01-10T04:51:53;98542.22;;;-11.48;97.90
24962;BME280;12992;50.884;13.668;2024-01-10T04:54:18;98546.44;;;-11.46;97.90
24962;BME280;12992;50.884;13.668;2024-01-10T04:56:43;98542.59;;;-11.40;97.33
24962;BME280;12992;50.884;13.668;2024-01-10T04:59:09;98544.75;;;-11.47;97.92
24962;BME280;12992;50.884;13.668;2024-01-10T05:01:34;98528.66;;;-11.56;97.86
24962;BME280;12992;50.884;13.668;2024-01-10T05:04:00;98533.94;;;-11.56;97.63
24962;BME280;12992;50.884;13.668;2024-01-10T05:06:25;98542.97;;;-11.46;98.04
24962;BME280;12992;50.884;13.668;2024-01-10T05:08:51;98539.97;;;-11.40;97.18
24962;BME280;12992;50.884;13.668;2024-01-10T05:11:16;98538.81;;;-11.50;98.04
24962;BME280;12992;50.884;13.668;2024-01-10T05:13:42;98540.91;;;-11.41;97.84
24962;BME280;12992;50.884;13.668;2024-01-10T05:16:07;98549.28;;;-11.34;97.73
24962;BME280;12992;50.884;13.668;2024-01-10T05:18:33;98546.94;;;-11.39;97.10
24962;BME280;12992;50.884;13.668;2024-01-10T05:20:59;98547.16;;;-11.28;97.77
24962;BME280;12992;50.884;13.668;2024-01-10T05:23:25;98545.72;;;-11.33;96.86
24962;BME280;12992;50.884;13.668;2024-01-10T05:25:50;98543.19;;;-11.35;97.35
24962;BME280;12992;50.884;13.668;2024-01-10T05:28:16;98551.28;;;-11.24;96.57
24962;BME280;12992;50.884;13.668;2024-01-10T05:30:41;98558.91;;;-11.19;96.99
24962;BME280;12992;50.884;13.668;2024-01-10T05:33:09;98557.47;;;-11.25;97.35
24962;BME280;12992;50.884;13.668;2024-01-10T05:35:36;98554.09;;;-11.27;97.03
24962;BME280;12992;50.884;13.668;2024-01-10T05:38:02;98539.50;;;-11.47;95.98
24962;BME280;12992;50.884;13.668;2024-01-10T05:40:30;98544.56;;;-11.44;96.77
24962;BME280;12992;50.884;13.668;2024-01-10T05:42:57;98549.56;;;-11.39;96.39
24962;BME280;12992;50.884;13.668;2024-01-10T05:45:22;98543.72;;;-11.44;96.67
24962;BME280;12992;50.884;13.668;2024-01-10T05:47:48;98545.72;;;-11.33;97.37
24962;BME280;12992;50.884;13.668;2024-01-10T05:50:13;98542.34;;;-11.35;97.69
24962;BME280;12992;50.884;13.668;2024-01-10T05:52:39;98538.28;;;-11.41;97.91
24962;BME280;12992;50.884;13.668;2024-01-10T05:55:04;98534.06;;;-11.44;96.79
24962;BME280;12992;50.884;13.668;2024-01-10T05:57:31;98544.13;;;-11.36;97.98
24962;BME280;12992;50.884;13.668;2024-01-10T05:59:57;98543.94;;;-11.33;97.82
24962;BME280;12992;50.884;13.668;2024-01-10T06:02:23;98543.69;;;-11.28;97.59
24962;BME280;12992;50.884;13.668;2024-01-10T06:04:49;98532.88;;;-11.38;97.84
24962;BME280;12992;50.884;13.668;2024-01-10T06:07:15;98554.84;;;-11.25;97.09
24962;BME280;12992;50.884;13.668;2024-01-10T06:09:40;98548.25;;;-11.32;97.80
24962;BME280;12992;50.884;13.668;2024-01-10T06:12:06;98551.56;;;-11.28;97.35
24962;BME280;12992;50.884;13.668;2024-01-10T06:14:32;98552.22;;;-11.25;97.18
24962;BME280;12992;50.884;13.668;2024-01-10T06:16:57;98543.00;;;-11.32;97.07
24962;BME280;12992;50.884;13.668;2024-01-10T06:19:24;98535.66;;;-11.41;96.69
24962;BME280;12992;50.884;13.668;2024-01-10T06:21:50;98535.09;;;-11.46;96.82
24962;BME280;12992;50.884;13.668;2024-01-10T06:24:17;98541.00;;;-11.43;96.97
24962;BME280;12992;50.884;13.668;2024-01-10T06:26:42;98552.00;;;-11.36;97.23
24962;BME280;12992;50.884;13.668;2024-01-10T06:29:08;98558.63;;;-11.29;96.78
24962;BME280;12992;50.884;13.668;2024-01-10T06:31:33;98553.16;;;-11.26;97.59
24962;BME280;12992;50.884;13.668;2024-01-10T06:33:59;98556.22;;;-11.33;96.44
24962;BME280;12992;50.884;13.668;2024-01-10T06:36:24;98546.75;;;-11.36;96.55
24962;BME280;12992;50.884;13.668;2024-01-10T06:38:49;98548.22;;;-11.46;97.96
24962;BME280;12992;50.884;13.668;2024-01-10T06:41:15;98553.88;;;-11.38;98.03
24962;BME280;12992;50.884;13.668;2024-01-10T06:43:40;98556.22;;;-11.33;97.28
24962;BME280;12992;50.884;13.668;2024-01-10T06:46:06;98556.13;;;-11.32;97.69
24962;BME280;12992;50.884;13.668;2024-01-10T06:48:31;98562.63;;;-11.37;96.81
24962;BME280;12992;50.884;13.668;2024-01-10T06:50:57;98563.09;;;-11.31;97.92
24962;BME280;12992;50.884;13.668;2024-01-10T06:53:22;98564.13;;;-11.33;97.99
24962;BME280;12992;50.884;13.668;2024-01-10T06:55:48;98566.59;;;-11.30;97.38
24962;BME280;12992;50.884;13.668;2024-01-10T06:58:13;98565.72;;;-11.31;97.51
24962;BME280;12992;50.884;13.668;2024-01-10T07:00:38;98565.38;;;-11.25;97.42
24962;BME280;12992;50.884;13.668;2024-01-10T07:03:04;98559.28;;;-11.25;97.78
24962;BME280;12992;50.884;13.668;2024-01-10T07:05:30;98566.06;;;-11.21;97.75
24962;BME280;12992;50.884;13.668;2024-01-10T07:07:57;98559.47;;;-11.14;96.39
24962;BME280;12992;50.884;13.668;2024-01-10T07:10:23;98556.53;;;-11.24;96.42
24962;BME280;12992;50.884;13.668;2024-01-10T07:12:52;98564.84;;;-11.16;97.43
24962;BME280;12992;50.884;13.668;2024-01-10T07:15:18;98568.75;;;-11.23;97.05
24962;BME280;12992;50.884;13.668;2024-01-10T07:17:43;98567.16;;;-11.25;96.78
24962;BME280;12992;50.884;13.668;2024-01-10T07:20:09;98572.06;;;-11.19;96.36
24962;BME280;12992;50.884;13.668;2024-01-10T07:22:36;98571.78;;;-11.15;97.39
24962;BME280;12992;50.884;13.668;2024-01-10T07:25:04;98569.84;;;-11.11;97.46
24962;BME280;12992;50.884;13.668;2024-01-10T07:27:31;98576.16;;;-10.99;97.17
24962;BME280;12992;50.884;13.668;2024-01-10T07:29:56;98576.25;;;-11.01;97.29
24962;BME280;12992;50.884;13.668;2024-01-10T07:32:22;98580.47;;;-10.98;98.12
24962;BME280;12992;50.884;13.668;2024-01-10T07:34:48;98598.28;;;-10.73;98.17
24962;BME280;12992;50.884;13.668;2024-01-10T07:37:13;98595.28;;;-10.67;98.29
24962;BME280;12992;50.884;13.668;2024-01-10T07:39:41;98594.59;;;-10.71;98.09
24962;BME280;12992;50.884;13.668;2024-01-10T07:42:07;98602.78;;;-10.61;98.62
24962;BME280;12992;50.884;13.668;2024-01-10T07:44:32;98609.97;;;-10.49;98.99
24962;BME280;12992;50.884;13.668;2024-01-10T07:46:58;98617.00;;;-10.35;98.92
24962;BME280;12992;50.884;13.668;2024-01-10T07:49:23;98634.56;;;-9.93;99.03
24962;BME280;12992;50.884;13.668;2024-01-10T07:51:49;98663.50;;;-9.23;97.95
24962;BME280;12992;50.884;13.668;2024-01-10T07:54:15;98683.59;;;-8.03;98.57
24962;BME280;12992;50.884;13.668;2024-01-10T07:56:40;98685.66;;;-7.21;97.29
24962;BME280;12992;50.884;13.668;2024-01-10T07:59:06;98674.78;;;-6.46;95.61
24962;BME280;12992;50.884;13.668;2024-01-10T08:01:32;98669.94;;;-5.72;92.78
24962;BME280;12992;50.884;13.668;2024-01-10T08:03:57;98635.13;;;-5.24;88.75
24962;BME280;12992;50.884;13.668;2024-01-10T08:06:23;98599.69;;;-5.34;85.92
24962;BME280;12992;50.884;13.668;2024-01-10T08:08:48;98543.50;;;-6.28;82.00
24962;BME280;12992;50.884;13.668;2024-01-10T08:11:14;98526.44;;;-6.81;81.45
24962;BME280;12992;50.884;13.668;2024-01-10T08:13:39;98523.69;;;-7.26;81.60
24962;BME280;12992;50.884;13.668;2024-01-10T08:16:05;98512.78;;;-7.69;82.35
24962;BME280;12992;50.884;13.668;2024-01-10T08:18:33;98518.06;;;-7.93;83.29
24962;BME280;12992;50.884;13.668;2024-01-10T08:20:59;98537.00;;;-7.99;83.81
24962;BME280;12992;50.884;13.668;2024-01-10T08:23:25;98537.06;;;-8.12;85.23
24962;BME280;12992;50.884;13.668;2024-01-10T08:25:50;98544.56;;;-8.18;85.54
24962;BME280;12992;50.884;13.668;2024-01-10T08:28:15;98563.44;;;-7.99;86.88
24962;BME280;12992;50.884;13.668;2024-01-10T08:30:41;98563.78;;;-8.04;88.24
24962;BME280;12992;50.884;13.668;2024-01-10T08:33:07;98568.44;;;-8.07;88.02
24962;BME280;12992;50.884;13.668;2024-01-10T08:35:32;98573.00;;;-8.09;90.00
24962;BME280;12992;50.884;13.668;2024-01-10T08:37:57;98580.06;;;-8.10;90.10
24962;BME280;12992;50.884;13.668;2024-01-10T08:40:23;98598.72;;;-7.87;91.11
24962;BME280;12992;50.884;13.668;2024-01-10T08:42:51;98598.25;;;-7.68;91.54
24962;BME280;12992;50.884;13.668;2024-01-10T08:45:17;98598.50;;;-7.72;92.91
24962;BME280;12992;50.884;13.668;2024-01-10T08:47:42;98596.13;;;-7.63;93.40
24962;BME280;12992;50.884;13.668;2024-01-10T08:50:08;98605.75;;;-7.62;94.09
24962;BME280;12992;50.884;13.668;2024-01-10T08:52:34;98609.78;;;-7.57;94.89
24962;BME280;12992;50.884;13.668;2024-01-10T08:55:03;98618.06;;;-7.37;95.45
24962;BME280;12992;50.884;13.668;2024-01-10T08:57:28;98623.94;;;-7.21;97.14
24962;BME280;12992;50.884;13.668;2024-01-10T08:59:55;98629.28;;;-7.10;98.46
24962;BME280;12992;50.884;13.668;2024-01-10T09:02:20;98630.34;;;-6.89;99.91
24962;BME280;12992;50.884;13.668;2024-01-10T09:04:45;98629.41;;;-6.76;100.00
24962;BME280;12992;50.884;13.668;2024-01-10T09:07:10;98631.50;;;-6.69;100.00
24962;BME280;12992;50.884;13.668;2024-01-10T09:09:36;98623.97;;;-6.51;100.00
24962;BME280;12992;50.884;13.668;2024-01-10T09:12:01;98625.78;;;-6.40;100.00
24962;BME280;12992;50.884;13.668;2024-01-10T09:14:28;98638.25;;;-6.07;100.00
24962;BME280;12992;50.884;13.668;2024-01-10T09:16:53;98633.53;;;-6.04;100.00
24962;BME280;12992;50.884;13.668;2024-01-10T09:19:19;98633.75;;;-5.84;100.00
24962;BME280;12992;50.884;13.668;2024-01-10T09:21:44;98622.41;;;-5.75;100.00
24962;BME280;12992;50.884;13.668;2024-01-10T09:24:10;98623.63;;;-5.68;100.00
24962;BME280;12992;50.884;13.668;2024-01-10T09:26:39;98625.41;;;-5.57;100.00
24962;BME280;12992;50.884;13.668;2024-01-10T09:29:05;98622.16;;;-5.50;100.00
24962;BME280;12992;50.884;13.668;2024-01-10T09:31:31;98625.53;;;-5.36;100.00
24962;BME280;12992;50.884;13.668;2024-01-10T09:33:56;98611.72;;;-5.19;100.00
24962;BME280;12992;50.884;13.668;2024-01-10T09:36:22;98610.91;;;-4.99;100.00
24962;BME280;12992;50.884;13.668;2024-01-10T09:38:47;98609.31;;;-4.90;100.00
24962;BME280;12992;50.884;13.668;2024-01-10T09:41:13;98606.81;;;-4.71;100.00
24962;BME280;12992;50.884;13.668;2024-01-10T09:43:39;98596.22;;;-4.50;100.00
24962;BME280;12992;50.884;13.668;2024-01-10T09:46:07;98602.22;;;-4.27;100.00
24962;BME280;12992;50.884;13.668;2024-01-10T09:48:32;98602.44;;;-4.09;100.00
24962;BME280;12992;50.884;13.668;2024-01-10T09:50:58;98604.94;;;-3.87;100.00
24962;BME280;12992;50.884;13.668;2024-01-10T09:53:25;98601.47;;;-3.78;99.57
24962;BME280;12992;50.884;13.668;2024-01-10T09:55:52;98596.63;;;-3.63;98.76
24962;BME280;12992;50.884;13.668;2024-01-10T09:58:23;98593.59;;;-3.49;97.96
24962;BME280;12992;50.884;13.668;2024-01-10T10:00:48;98595.03;;;-3.35;98.38
24962;BME280;12992;50.884;13.668;2024-01-10T10:03:14;98594.63;;;-3.21;98.74
24962;BME280;12992;50.884;13.668;2024-01-10T10:05:40;98591.56;;;-3.06;98.90
24962;BME280;12992;50.884;13.668;2024-01-10T10:08:07;98589.75;;;-2.96;99.23
24962;BME280;12992;50.884;13.668;2024-01-10T10:10:34;98594.69;;;-2.82;98.46
24962;BME280;12992;50.884;13.668;2024-01-10T10:13:00;98592.00;;;-2.63;98.01
24962;BME280;12992;50.884;13.668;2024-01-10T10:15:25;98584.81;;;-2.43;96.57
24962;BME280;12992;50.884;13.668;2024-01-10T10:17:54;98611.31;;;-1.38;95.61
24962;BME280;12992;50.884;13.668;2024-01-10T10:20:27;98609.28;;;1.98;93.92
24962;BME280;12992;50.884;13.668;2024-01-10T10:22:59;98551.16;;;5.23;82.56
24962;BME280;12992;50.884;13.668;2024-01-10T10:25:36;98486.91;;;7.99;68.44
24962;BME280;12992;50.884;13.668;2024-01-10T10:28:04;98480.66;;;9.71;55.34
24962;BME280;12992;50.884;13.668;2024-01-10T10:30:33;98486.66;;;12.10;48.63
24962;BME280;12992;50.884;13.668;2024-01-10T10:32:58;98505.69;;;14.06;45.23
24962;BME280;12992;50.884;13.668;2024-01-10T10:35:24;98484.66;;;15.33;41.33
24962;BME280;12992;50.884;13.668;2024-01-10T10:37:51;98460.13;;;15.75;37.96
24962;BME280;12992;50.884;13.668;2024-01-10T10:40:17;98474.50;;;16.66;38.43
24962;BME280;12992;50.884;13.668;2024-01-10T10:42:45;98456.84;;;16.52;36.28
24962;BME280;12992;50.884;13.668;2024-01-10T10:45:20;98456.13;;;15.61;37.16
24962;BME280;12992;50.884;13.668;2024-01-10T10:47:56;98447.97;;;15.71;37.15
24962;BME280;12992;50.884;13.668;2024-01-10T10:50:23;98439.47;;;15.45;35.93
24962;BME280;12992;50.884;13.668;2024-01-10T10:52:50;98432.03;;;15.68;34.63
24962;BME280;12992;50.884;13.668;2024-01-10T10:55:17;98437.75;;;15.61;34.71
24962;BME280;12992;50.884;13.668;2024-01-10T10:57:45;98416.81;;;13.63;35.49
24962;BME280;12992;50.884;13.668;2024-01-10T11:00:13;98433.63;;;13.55;35.38
24962;BME280;12992;50.884;13.668;2024-01-10T11:02:40;98422.38;;;12.94;35.47
24962;BME280;12992;50.884;13.668;2024-01-10T11:05:07;98429.69;;;14.57;34.89
24962;BME280;12992;50.884;13.668;2024-01-10T11:07:38;98429.47;;;12.67;35.25
24962;BME280;12992;50.884;13.668;2024-01-10T11:10:07;98433.13;;;14.47;35.65
24962;BME280;12992;50.884;13.668;2024-01-10T11:12:38;98423.91;;;14.36;34.59
24962;BME280;12992;50.884;13.668;2024-01-10T11:15:34;98408.88;;;13.33;34.92
24962;BME280;12992;50.884;13.668;2024-01-10T11:26:13;98440.28;;;5.87;40.94
24962;BME280;12992;50.884;13.668;2024-01-10T11:28:40;98452.56;;;5.34;41.52
24962;BME280;12992;50.884;13.668;2024-01-10T11:31:06;98447.38;;;6.23;41.28
24962;BME280;12992;50.884;13.668;2024-01-10T11:33:33;98444.44;;;5.90;40.78
24962;BME280;12992;50.884;13.668;2024-01-10T11:36:43;98443.31;;;5.22;41.19
24962;BME280;12992;50.884;13.668;2024-01-10T11:39:03;98447.34;;;5.11;41.65
24962;BME280;12992;50.884;13.668;2024-01-10T11:41:30;98447.97;;;5.84;42.15
24962;BME280;12992;50.884;13.668;2024-01-10T11:49:15;98452.00;;;5.94;41.55
24962;BME280;12992;50.884;13.668;2024-01-10T11:51:43;98438.91;;;5.70;41.61
24962;BME280;12992;50.884;13.668;2024-01-10T11:54:09;98440.03;;;5.82;41.68
24962;BME280;12992;50.884;13.668;2024-01-10T11:56:41;98433.22;;;5.09;41.38
24962;BME280;12992;50.884;13.668;2024-01-10T11:59:08;98450.47;;;5.57;41.78
24962;BME280;12992;50.884;13.668;2024-01-10T12:01:36;98434.50;;;5.34;41.56
24962;BME280;12992;50.884;13.668;2024-01-10T12:04:03;98441.13;;;5.32;41.50
24962;BME280;12992;50.884;13.668;2024-01-10T12:06:29;98456.66;;;5.79;41.79
24962;BME280;12992;50.884;13.668;2024-01-10T12:08:54;98431.88;;;6.51;40.67
24962;BME280;12992;50.884;13.668;2024-01-10T12:11:20;98432.34;;;6.55;40.28
24962;BME280;12992;50.884;13.668;2024-01-10T12:13:45;98428.50;;;5.95;40.70
24962;BME280;12992;50.884;13.668;2024-01-10T12:16:14;98430.84;;;6.05;40.59
24962;BME280;12992;50.884;13.668;2024-01-10T12:18:43;98441.50;;;6.13;41.56
24962;BME280;12992;50.884;13.668;2024-01-10T12:21:09;98437.28;;;6.45;40.63
24962;BME280;12992;50.884;13.668;2024-01-10T12:23:36;98427.97;;;6.61;41.05
24962;BME280;12992;50.884;13.668;2024-01-10T12:26:02;98419.97;;;7.00;39.70
24962;BME280;12992;50.884;13.668;2024-01-10T12:28:28;98424.31;;;7.15;39.84
24962;BME280;12992;50.884;13.668;2024-01-10T12:30:53;98408.84;;;6.75;39.73
24962;BME280;12992;50.884;13.668;2024-01-10T12:33:22;98413.09;;;7.18;39.73
24962;BME280;12992;50.884;13.668;2024-01-10T12:36:10;98414.66;;;6.66;40.14
24962;BME280;12992;50.884;13.668;2024-01-10T12:38:37;98418.84;;;6.14;40.21
24962;BME280;12992;50.884;13.668;2024-01-10T12:41:03;98427.06;;;5.43;41.16
24962;BME280;12992;50.884;13.668;2024-01-10T12:43:30;98432.88;;;4.40;42.63
24962;BME280;12992;50.884;13.668;2024-01-10T12:46:11;98437.22;;;4.05;44.05
24962;BME280;12992;50.884;13.668;2024-01-10T12:48:38;98447.06;;;4.27;44.45
24962;BME280;12992;50.884;13.668;2024-01-10T12:51:04;98445.75;;;4.23;44.83
24962;BME280;12992;50.884;13.668;2024-01-10T12:53:38;98455.53;;;4.96;45.09
24962;BME280;12992;50.884;13.668;2024-01-10T12:56:05;98431.28;;;5.03;44.05